Main page
METAR-TAF:

METAR-TAF

Airports :

Castellón–Costa Azahar Airport

Castellón de la Plana, Spain

latitude: 40-12-35N, longitude: 0-04-11E, elevation: 360 m

Current weather observation

The report was made 36 minutes ago, at 08:30 UTC
Wind 4 kt from the West/Southwest, varying between South/Southwest and West
Temperature 24°C
Humidity 57%
Pressure 1019 hPa
Visibility 10 km or more

METAR: LECH 150830Z AUTO 24004KT 200V270 9999 NCD 24/15 Q1019

Time: 11:06 (09:06 UTC)


TAF: missing

Weather observations and forecasts of more than 4000 airports (METAR and TAF reports).

The available stations are represented by yellow and red dots on the map.

Hover mouse over dot to see the name of the station.

Then click to see weather observations and forecasts.

To change the map : click on the green buttons with a black cross to zoom in, on the green button with a dash to zoom out, or on the green arrows for adjacent maps.


METAR-TAF: